createdAt,value
2018-06-28T00:00:03.735Z,73.7
2018-06-28T00:05:00.842Z,73.9
2018-06-28T00:09:58.650Z,73.8
2018-06-28T00:14:55.874Z,73.4
2018-06-28T00:19:53.673Z,73.5
2018-06-28T00:24:50.791Z,73.4
2018-06-28T00:29:48.268Z,73.5
2018-06-28T00:34:46.098Z,73.4
2018-06-28T00:39:43.618Z,73.4
2018-06-28T00:44:41.337Z,73.1
2018-06-28T00:49:38.475Z,73.3
2018-06-28T00:54:35.758Z,73.5
2018-06-28T00:59:32.984Z,73.6
2018-06-28T01:04:30.661Z,73.7
2018-06-28T01:09:27.960Z,73.2
2018-06-28T01:14:25.345Z,73.5
2018-06-28T01:19:23.127Z,73.4
2018-06-28T01:24:20.757Z,73.8
2018-06-28T01:29:18.436Z,73.3
2018-06-28T01:34:15.733Z,73.3
2018-06-28T01:39:13.249Z,72.9
2018-06-28T01:44:11.249Z,73.1
2018-06-28T01:49:08.894Z,73.6
2018-06-28T01:54:07.009Z,73.5
2018-06-28T01:59:04.504Z,73.5
2018-06-28T02:04:01.930Z,73.6
2018-06-28T02:08:59.425Z,73.5
2018-06-28T02:13:57.070Z,73.2
2018-06-28T02:18:54.704Z,73.9
2018-06-28T02:23:52.191Z,73.6
2018-06-28T02:28:49.749Z,73.8
2018-06-28T02:33:47.503Z,73.5
2018-06-28T02:38:44.885Z,73.5
2018-06-28T02:43:42.690Z,74
2018-06-28T02:48:40.297Z,73.7
2018-06-28T02:53:37.974Z,74
2018-06-28T02:58:35.391Z,74.3
2018-06-28T03:03:32.847Z,74.3
2018-06-28T03:08:30.274Z,75.2
2018-06-28T03:13:27.365Z,74.9
2018-06-28T03:18:24.828Z,75.2
2018-06-28T03:23:22.541Z,75.2
2018-06-28T03:28:20.007Z,75.4
2018-06-28T03:33:17.381Z,75.7
2018-06-28T03:38:14.924Z,75.5
2018-06-28T03:43:12.854Z,75.2
2018-06-28T03:48:10.283Z,75.8
2018-06-28T03:53:07.829Z,76.1
2018-06-28T03:58:05.366Z,75.8
2018-06-28T04:03:04.528Z,75.5
2018-06-28T04:08:02.331Z,75.5
2018-06-28T04:12:59.508Z,75.2
2018-06-28T04:17:56.879Z,75.3
2018-06-28T04:22:54.040Z,75.4
2018-06-28T04:27:51.578Z,75.3
2018-06-28T04:32:48.895Z,75.3
2018-06-28T04:37:46.452Z,75.8
2018-06-28T04:42:43.942Z,75.6
2018-06-28T04:47:41.614Z,75.5
2018-06-28T04:52:39.240Z,75.4
2018-06-28T04:57:36.772Z,75.7
2018-06-28T05:02:34.414Z,75.4
2018-06-28T05:07:31.678Z,75.1
2018-06-28T05:12:28.432Z,75.1
2018-06-28T05:17:25.898Z,75.5
2018-06-28T05:22:23.427Z,75.3
2018-06-28T05:27:20.642Z,75.4
2018-06-28T05:32:17.952Z,75.4
2018-06-28T05:37:15.690Z,75.5
2018-06-28T05:42:12.988Z,75.5
2018-06-28T05:47:10.652Z,75.5
2018-06-28T05:52:08.035Z,75.1
2018-06-28T05:57:05.538Z,75.5
2018-06-28T06:02:03.160Z,75.4
2018-06-28T06:07:00.773Z,75.1
2018-06-28T06:11:58.385Z,75.2
2018-06-28T06:16:55.575Z,75.2
2018-06-28T06:21:52.792Z,75
2018-06-28T06:26:50.761Z,74.7
2018-06-28T06:31:48.132Z,74.8
2018-06-28T06:36:45.465Z,74.7
2018-06-28T06:41:42.863Z,74.8
2018-06-28T06:46:41.131Z,74.6
2018-06-28T06:51:38.041Z,74.7
2018-06-28T06:56:35.540Z,74.3
2018-06-28T07:01:33.056Z,74.4
2018-06-28T07:06:30.472Z,74.3
2018-06-28T07:11:27.746Z,74.5
2018-06-28T07:16:25.277Z,74.7
2018-06-28T07:21:22.659Z,74.5
2018-06-28T07:26:20.674Z,74.2
2018-06-28T07:31:18.398Z,74
2018-06-28T07:36:15.980Z,73.9
2018-06-28T07:41:13.142Z,74.3
2018-06-28T07:46:10.984Z,74.5
2018-06-28T07:51:07.910Z,74.2
2018-06-28T07:56:05.539Z,74.3
2018-06-28T08:01:02.976Z,74.4
2018-06-28T08:06:01.263Z,74.5
2018-06-28T08:10:58.658Z,74.1
2018-06-28T08:15:56.037Z,74.3
2018-06-28T08:20:53.566Z,74.5
2018-06-28T08:25:50.872Z,74.7
2018-06-28T08:30:48.150Z,74.7
2018-06-28T08:35:45.537Z,74.6
2018-06-28T08:40:42.670Z,74.5
2018-06-28T08:45:40.482Z,75.4
2018-06-28T08:50:41.434Z,75
2018-06-28T08:55:42.408Z,75
2018-06-28T09:00:41.497Z,75.2
2018-06-28T09:05:39.310Z,75.3
2018-06-28T09:10:40.918Z,74.7
2018-06-28T09:15:41.890Z,74.8
2018-06-28T09:20:42.952Z,75.3
2018-06-28T09:25:38.623Z,75.1
2018-06-28T09:30:35.995Z,75
2018-06-28T09:35:33.363Z,74.8
2018-06-28T09:40:30.725Z,75.4
2018-06-28T09:45:27.881Z,75.4
2018-06-28T09:50:25.246Z,75.6
2018-06-28T09:55:22.318Z,75.5
2018-06-28T10:00:19.818Z,76
2018-06-28T10:05:16.974Z,76.1
2018-06-28T10:10:14.462Z,75.7
2018-06-28T10:15:12.577Z,75.3
2018-06-28T10:20:08.868Z,76
2018-06-28T10:25:06.556Z,76
2018-06-28T10:30:03.915Z,76.2
2018-06-28T10:35:01.780Z,76.1
2018-06-28T10:39:59.366Z,76
2018-06-28T10:44:57.040Z,76.3
2018-06-28T10:49:54.375Z,76.4
2018-06-28T10:54:51.994Z,76
2018-06-28T10:59:49.442Z,75.8
2018-06-28T11:04:47.115Z,76
2018-06-28T11:09:44.822Z,76.3
2018-06-28T11:14:42.655Z,76.1
2018-06-28T11:19:40.444Z,76.4
2018-06-28T11:24:37.992Z,76.4
2018-06-28T11:29:35.311Z,76.3
2018-06-28T11:34:32.803Z,76.3
2018-06-28T11:39:30.243Z,76.3
2018-06-28T11:44:27.696Z,76.5
2018-06-28T11:49:25.508Z,76.4
2018-06-28T11:54:23.314Z,76.5
2018-06-28T11:59:21.035Z,76.2
2018-06-28T12:04:18.229Z,76
2018-06-28T12:09:15.970Z,75.8
2018-06-28T12:14:13.664Z,75.9
2018-06-28T12:19:11.605Z,76
2018-06-28T12:24:09.151Z,76
2018-06-28T12:29:06.157Z,76.2
2018-06-28T12:34:03.605Z,76.5
2018-06-28T12:39:01.237Z,76.1
2018-06-28T12:43:59.590Z,75.7
2018-06-28T12:48:57.393Z,75.8
2018-06-28T12:53:54.919Z,75.6
2018-06-28T12:58:52.074Z,75.1
2018-06-28T13:03:49.669Z,75.2
2018-06-28T13:08:47.750Z,75.5
2018-06-28T13:13:45.428Z,75.9
2018-06-28T13:18:43.183Z,76.4
2018-06-28T13:23:40.433Z,76.2
2018-06-28T13:28:37.700Z,76.4
2018-06-28T13:33:35.250Z,76.1
2018-06-28T13:38:32.999Z,75.9
2018-06-28T13:43:30.448Z,75.9
2018-06-28T13:48:27.837Z,75.2
2018-06-28T13:53:25.317Z,75.3
2018-06-28T13:58:23.179Z,74.8
2018-06-28T14:03:21.391Z,74.6
2018-06-28T14:08:19.130Z,75
2018-06-28T14:13:16.830Z,75
2018-06-28T14:18:14.698Z,74
2018-06-28T14:23:12.724Z,73.8
2018-06-28T14:28:10.130Z,74
2018-06-28T14:33:07.682Z,73.9
2018-06-28T14:38:05.189Z,74.2
2018-06-28T14:43:02.750Z,74.1
2018-06-28T14:48:00.283Z,73.9
2018-06-28T14:52:57.862Z,73.8
2018-06-28T14:57:55.391Z,73.2
2018-06-28T15:02:52.799Z,73.6
2018-06-28T15:07:50.513Z,73.6
2018-06-28T15:12:47.862Z,73.9
2018-06-28T15:17:45.371Z,74
2018-06-28T15:22:43.009Z,74.3
2018-06-28T15:27:40.484Z,74.5
2018-06-28T15:32:38.180Z,74.7
2018-06-28T15:37:35.466Z,75
2018-06-28T15:42:32.779Z,75.1
2018-06-28T15:47:30.309Z,75.4
2018-06-28T15:52:27.643Z,75.4
2018-06-28T15:57:25.603Z,75.6
2018-06-28T16:02:22.944Z,75.9
2018-06-28T16:07:20.234Z,75.6
2018-06-28T16:12:17.702Z,75.6
2018-06-28T16:17:15.095Z,75.6
2018-06-28T16:22:12.385Z,75.3
2018-06-28T16:27:09.613Z,75.3
2018-06-28T16:32:06.977Z,74.8
2018-06-28T16:37:04.397Z,73.8
2018-06-28T16:42:01.879Z,73.8
2018-06-28T16:46:59.003Z,73.7
2018-06-28T16:51:56.427Z,74.1
2018-06-28T16:56:53.803Z,74
2018-06-28T17:01:51.408Z,74.3
2018-06-28T17:06:48.689Z,74.4
2018-06-28T17:11:46.315Z,74.5
2018-06-28T17:16:43.539Z,74.8
2018-06-28T17:21:41.387Z,74.9
2018-06-28T17:26:40.275Z,74.9
2018-06-28T17:31:41.579Z,75
2018-06-28T17:36:44.224Z,75.1
2018-06-28T17:41:39.994Z,75.5
2018-06-28T17:46:36.719Z,75.3
2018-06-28T17:51:33.933Z,75.3
2018-06-28T17:56:31.290Z,75.4
2018-06-28T18:01:28.706Z,75.3
2018-06-28T18:06:28.160Z,75.2
2018-06-28T18:11:25.640Z,75.2
2018-06-28T18:16:22.654Z,75.2
2018-06-28T18:21:19.825Z,75.2
2018-06-28T18:26:17.378Z,75.1
2018-06-28T18:31:15.075Z,75.2
2018-06-28T18:36:12.414Z,75.1
2018-06-28T18:41:09.462Z,75.1
2018-06-28T18:46:07.230Z,75.3
2018-06-28T18:51:04.526Z,75.4
2018-06-28T18:56:01.794Z,75.5
2018-06-28T19:00:59.062Z,75.6
2018-06-28T19:05:56.971Z,75.9
2018-06-28T19:10:54.000Z,76
2018-06-28T19:15:51.352Z,76.5
2018-06-28T19:20:48.563Z,76.4
2018-06-28T19:25:45.907Z,76.3
2018-06-28T19:30:43.128Z,76.1
2018-06-28T19:35:40.355Z,76.3
2018-06-28T19:40:37.482Z,76.4
2018-06-28T19:45:35.253Z,76.4
2018-06-28T19:50:32.567Z,76.5
2018-06-28T19:55:29.724Z,76.7
2018-06-28T20:00:27.601Z,76.7
2018-06-28T20:05:25.295Z,76.7
2018-06-28T20:10:22.472Z,76.6
2018-06-28T20:15:20.454Z,76.4
2018-06-28T20:20:23.930Z,76.3
2018-06-28T20:25:19.328Z,76.1
2018-06-28T20:30:16.888Z,76.2
2018-06-28T20:35:14.281Z,76.1
2018-06-28T20:40:12.535Z,76.1
2018-06-28T20:45:10.246Z,75.9
2018-06-28T20:50:08.057Z,75.7
2018-06-28T20:55:05.413Z,75.5
2018-06-28T21:00:03.104Z,75.5
2018-06-28T21:05:00.761Z,75.7
2018-06-28T21:09:58.470Z,75.7
2018-06-28T21:14:55.906Z,75.7
2018-06-28T21:19:52.980Z,75.6
2018-06-28T21:24:50.414Z,75.8
2018-06-28T21:29:47.717Z,75.6
2018-06-28T21:34:45.201Z,75.6
2018-06-28T21:39:42.502Z,75.5
2018-06-28T21:44:39.676Z,75.5
2018-06-28T21:49:36.795Z,75.6
2018-06-28T21:54:34.186Z,75.7
2018-06-28T21:59:31.658Z,75.6
2018-06-28T22:04:28.878Z,75.6
2018-06-28T22:09:25.972Z,75.6
2018-06-28T22:14:23.185Z,75.7
2018-06-28T22:19:20.662Z,75.9
2018-06-28T22:24:18.041Z,75.9
2018-06-28T22:29:15.420Z,76.1
2018-06-28T22:34:12.795Z,76.4
2018-06-28T22:39:10.339Z,76.5
2018-06-28T22:44:08.059Z,76.4
2018-06-28T22:49:04.974Z,76.4
2018-06-28T22:54:02.270Z,76.7
2018-06-28T22:58:59.723Z,76.8
2018-06-28T23:03:57.405Z,76.8
2018-06-28T23:08:54.378Z,77
2018-06-28T23:13:51.950Z,76.9
2018-06-28T23:18:49.144Z,76.8
2018-06-28T23:23:46.362Z,76.8
2018-06-28T23:28:43.849Z,76.9
2018-06-28T23:33:41.633Z,77
2018-06-28T23:38:38.974Z,76.9
2018-06-28T23:43:36.636Z,77
2018-06-28T23:48:34.331Z,77
2018-06-28T23:53:31.687Z,77
2018-06-28T23:58:29.022Z,76.8
